Hopeton, Oklahoma
Current Conditions -  °F | °C
As of 4:15 AM on Saturday 20 Dec 2014 (Local Time) from KAVK Reporting Station
Haze Haze  
Wind Chill: 26°   Ceiling: 2300
Heat Index: 34°   Visibility: 4mi
Dew Point: 34°   Wind: 9mph
Humidity: 100%   Direction: 190°S
Pressure: 30.16"   Gusts: NA
Location:  36.69°N, 98.67°W
Report Text: KAVK 201015Z AUTO 19008KT 4SM BR OVC023 01/01 A3016 RMK AO2
Loading
Personal Weather Stations






























Interactive Weather Map New forecast layout! Learn more

10-Day Weather Forecast

Advertisements
Track Severe Weather on mobile